sensor_id;sensor_type;location;lat;lon;timestamp;P1;durP1;ratioP1;P2;durP2;ratioP2
12921;SDS011;6528;48.086;16.282;2023-10-19T00:00:46;5.70;;;5.30;;
12921;SDS011;6528;48.086;16.282;2023-10-19T00:03:17;6.23;;;5.73;;
12921;SDS011;6528;48.086;16.282;2023-10-19T00:05:45;5.93;;;5.47;;
12921;SDS011;6528;48.086;16.282;2023-10-19T00:08:16;6.73;;;5.40;;
12921;SDS011;6528;48.086;16.282;2023-10-19T00:10:50;6.93;;;6.33;;
12921;SDS011;6528;48.086;16.282;2023-10-19T00:13:31;6.30;;;5.70;;
12921;SDS011;6528;48.086;16.282;2023-10-19T00:15:59;6.23;;;5.73;;
12921;SDS011;6528;48.086;16.282;2023-10-19T00:18:26;7.03;;;6.27;;
12921;SDS011;6528;48.086;16.282;2023-10-19T00:20:54;7.10;;;6.50;;
12921;SDS011;6528;48.086;16.282;2023-10-19T00:23:40;6.20;;;5.70;;
12921;SDS011;6528;48.086;16.282;2023-10-19T00:26:07;6.90;;;6.30;;
12921;SDS011;6528;48.086;16.282;2023-10-19T00:28:36;6.33;;;5.83;;
12921;SDS011;6528;48.086;16.282;2023-10-19T00:31:05;6.00;;;5.50;;
12921;SDS011;6528;48.086;16.282;2023-10-19T00:33:37;5.80;;;5.40;;
12921;SDS011;6528;48.086;16.282;2023-10-19T00:36:08;6.37;;;5.77;;
12921;SDS011;6528;48.086;16.282;2023-10-19T00:38:40;6.83;;;6.07;;
12921;SDS011;6528;48.086;16.282;2023-10-19T00:41:18;6.60;;;6.10;;
12921;SDS011;6528;48.086;16.282;2023-10-19T00:43:55;6.40;;;5.90;;
12921;SDS011;6528;48.086;16.282;2023-10-19T00:46:39;8.00;;;6.60;;
12921;SDS011;6528;48.086;16.282;2023-10-19T00:49:10;6.50;;;5.90;;
12921;SDS011;6528;48.086;16.282;2023-10-19T00:51:43;6.43;;;5.93;;
12921;SDS011;6528;48.086;16.282;2023-10-19T00:54:23;6.50;;;6.00;;
12921;SDS011;6528;48.086;16.282;2023-10-19T00:57:04;6.97;;;6.37;;
12921;SDS011;6528;48.086;16.282;2023-10-19T00:59:34;7.30;;;6.70;;
12921;SDS011;6528;48.086;16.282;2023-10-19T01:02:09;7.20;;;6.60;;
12921;SDS011;6528;48.086;16.282;2023-10-19T01:04:52;6.53;;;6.00;;
12921;SDS011;6528;48.086;16.282;2023-10-19T01:07:27;7.23;;;6.63;;
12921;SDS011;6528;48.086;16.282;2023-10-19T01:09:57;7.73;;;6.33;;
12921;SDS011;6528;48.086;16.282;2023-10-19T01:12:27;6.77;;;6.17;;
12921;SDS011;6528;48.086;16.282;2023-10-19T01:15:00;6.50;;;6.00;;
12921;SDS011;6528;48.086;16.282;2023-10-19T01:17:45;6.60;;;5.97;;
12921;SDS011;6528;48.086;16.282;2023-10-19T01:20:24;6.60;;;6.10;;
12921;SDS011;6528;48.086;16.282;2023-10-19T01:22:58;6.67;;;6.23;;
12921;SDS011;6528;48.086;16.282;2023-10-19T01:25:43;7.30;;;6.60;;
12921;SDS011;6528;48.086;16.282;2023-10-19T01:28:35;7.10;;;6.60;;
12921;SDS011;6528;48.086;16.282;2023-10-19T01:31:19;6.73;;;6.07;;
12921;SDS011;6528;48.086;16.282;2023-10-19T01:33:57;8.97;;;6.40;;
12921;SDS011;6528;48.086;16.282;2023-10-19T01:36:27;7.17;;;6.57;;
12921;SDS011;6528;48.086;16.282;2023-10-19T01:38:59;6.90;;;6.40;;
12921;SDS011;6528;48.086;16.282;2023-10-19T01:41:35;6.60;;;6.10;;
12921;SDS011;6528;48.086;16.282;2023-10-19T01:44:03;7.43;;;6.83;;
12921;SDS011;6528;48.086;16.282;2023-10-19T01:46:32;7.20;;;6.60;;
12921;SDS011;6528;48.086;16.282;2023-10-19T01:49:03;6.97;;;6.37;;
12921;SDS011;6528;48.086;16.282;2023-10-19T01:51:32;7.10;;;6.50;;
12921;SDS011;6528;48.086;16.282;2023-10-19T01:54:05;6.43;;;5.93;;
12921;SDS011;6528;48.086;16.282;2023-10-19T01:56:34;7.87;;;7.17;;
12921;SDS011;6528;48.086;16.282;2023-10-19T01:59:03;7.30;;;6.67;;
12921;SDS011;6528;48.086;16.282;2023-10-19T02:01:31;7.43;;;6.83;;
12921;SDS011;6528;48.086;16.282;2023-10-19T02:04:00;7.57;;;7.07;;
12921;SDS011;6528;48.086;16.282;2023-10-19T02:06:30;7.43;;;6.93;;
12921;SDS011;6528;48.086;16.282;2023-10-19T02:09:08;7.30;;;6.70;;
12921;SDS011;6528;48.086;16.282;2023-10-19T02:11:59;7.80;;;7.13;;
12921;SDS011;6528;48.086;16.282;2023-10-19T02:14:27;7.87;;;7.10;;
12921;SDS011;6528;48.086;16.282;2023-10-19T02:16:59;7.67;;;7.07;;
12921;SDS011;6528;48.086;16.282;2023-10-19T02:19:29;8.40;;;7.80;;
12921;SDS011;6528;48.086;16.282;2023-10-19T02:21:57;7.50;;;6.90;;
12921;SDS011;6528;48.086;16.282;2023-10-19T02:24:26;7.57;;;6.97;;
12921;SDS011;6528;48.086;16.282;2023-10-19T02:26:55;8.00;;;7.30;;
12921;SDS011;6528;48.086;16.282;2023-10-19T02:29:23;8.27;;;7.40;;
12921;SDS011;6528;48.086;16.282;2023-10-19T02:31:54;8.47;;;7.67;;
12921;SDS011;6528;48.086;16.282;2023-10-19T02:34:23;7.77;;;7.07;;
12921;SDS011;6528;48.086;16.282;2023-10-19T02:36:51;8.33;;;7.60;;
12921;SDS011;6528;48.086;16.282;2023-10-19T02:39:18;7.83;;;7.23;;
12921;SDS011;6528;48.086;16.282;2023-10-19T02:41:46;7.10;;;6.60;;
12921;SDS011;6528;48.086;16.282;2023-10-19T02:44:19;7.03;;;6.53;;
12921;SDS011;6528;48.086;16.282;2023-10-19T02:46:50;9.03;;;8.33;;
12921;SDS011;6528;48.086;16.282;2023-10-19T02:49:21;7.87;;;7.17;;
12921;SDS011;6528;48.086;16.282;2023-10-19T02:51:50;8.27;;;7.60;;
12921;SDS011;6528;48.086;16.282;2023-10-19T02:54:20;7.73;;;7.20;;
12921;SDS011;6528;48.086;16.282;2023-10-19T02:56:50;7.40;;;6.90;;
12921;SDS011;6528;48.086;16.282;2023-10-19T02:59:20;8.50;;;7.87;;
12921;SDS011;6528;48.086;16.282;2023-10-19T03:01:50;8.50;;;7.73;;
12921;SDS011;6528;48.086;16.282;2023-10-19T03:04:33;9.80;;;8.90;;
12921;SDS011;6528;48.086;16.282;2023-10-19T03:07:04;8.70;;;7.93;;
12921;SDS011;6528;48.086;16.282;2023-10-19T03:09:32;8.70;;;7.30;;
12921;SDS011;6528;48.086;16.282;2023-10-19T03:12:03;8.97;;;8.17;;
12921;SDS011;6528;48.086;16.282;2023-10-19T03:14:35;8.80;;;8.10;;
12921;SDS011;6528;48.086;16.282;2023-10-19T03:17:04;7.90;;;7.30;;
12921;SDS011;6528;48.086;16.282;2023-10-19T03:19:34;7.33;;;6.83;;
12921;SDS011;6528;48.086;16.282;2023-10-19T03:22:02;8.70;;;8.00;;
12921;SDS011;6528;48.086;16.282;2023-10-19T03:24:32;8.27;;;7.57;;
12921;SDS011;6528;48.086;16.282;2023-10-19T03:27:03;8.43;;;7.73;;
12921;SDS011;6528;48.086;16.282;2023-10-19T03:29:51;7.10;;;6.50;;
12921;SDS011;6528;48.086;16.282;2023-10-19T03:32:23;7.93;;;7.43;;
12921;SDS011;6528;48.086;16.282;2023-10-19T03:34:55;8.10;;;7.40;;
12921;SDS011;6528;48.086;16.282;2023-10-19T03:37:24;7.90;;;7.20;;
12921;SDS011;6528;48.086;16.282;2023-10-19T03:39:52;7.60;;;7.00;;
12921;SDS011;6528;48.086;16.282;2023-10-19T03:42:23;9.53;;;8.73;;
12921;SDS011;6528;48.086;16.282;2023-10-19T03:44:54;8.90;;;8.10;;
12921;SDS011;6528;48.086;16.282;2023-10-19T03:47:24;8.47;;;7.77;;
12921;SDS011;6528;48.086;16.282;2023-10-19T03:50:02;7.53;;;6.93;;
12921;SDS011;6528;48.086;16.282;2023-10-19T03:52:41;7.83;;;7.23;;
12921;SDS011;6528;48.086;16.282;2023-10-19T03:55:09;7.80;;;7.20;;
12921;SDS011;6528;48.086;16.282;2023-10-19T03:57:41;7.97;;;7.27;;
12921;SDS011;6528;48.086;16.282;2023-10-19T04:00:13;7.50;;;6.87;;
12921;SDS011;6528;48.086;16.282;2023-10-19T04:02:45;7.90;;;7.30;;
12921;SDS011;6528;48.086;16.282;2023-10-19T04:05:13;8.47;;;6.70;;
12921;SDS011;6528;48.086;16.282;2023-10-19T04:07:47;7.77;;;7.10;;
12921;SDS011;6528;48.086;16.282;2023-10-19T04:10:17;7.10;;;6.47;;
12921;SDS011;6528;48.086;16.282;2023-10-19T04:12:57;7.60;;;7.10;;
12921;SDS011;6528;48.086;16.282;2023-10-19T04:15:27;7.57;;;6.87;;
12921;SDS011;6528;48.086;16.282;2023-10-19T04:18:02;7.47;;;6.87;;
12921;SDS011;6528;48.086;16.282;2023-10-19T04:20:40;8.10;;;7.50;;
12921;SDS011;6528;48.086;16.282;2023-10-19T04:23:16;6.80;;;6.20;;
12921;SDS011;6528;48.086;16.282;2023-10-19T04:25:43;8.10;;;7.33;;
12921;SDS011;6528;48.086;16.282;2023-10-19T04:28:14;6.57;;;6.10;;
12921;SDS011;6528;48.086;16.282;2023-10-19T04:30:42;7.70;;;7.00;;
12921;SDS011;6528;48.086;16.282;2023-10-19T04:33:09;8.33;;;7.53;;
12921;SDS011;6528;48.086;16.282;2023-10-19T04:35:37;7.43;;;6.80;;
12921;SDS011;6528;48.086;16.282;2023-10-19T04:38:08;7.80;;;6.63;;
12921;SDS011;6528;48.086;16.282;2023-10-19T04:40:35;6.73;;;6.23;;
12921;SDS011;6528;48.086;16.282;2023-10-19T04:43:03;6.87;;;6.37;;
12921;SDS011;6528;48.086;16.282;2023-10-19T04:45:33;7.50;;;6.90;;
12921;SDS011;6528;48.086;16.282;2023-10-19T04:48:00;7.40;;;6.80;;
12921;SDS011;6528;48.086;16.282;2023-10-19T04:50:31;7.00;;;6.40;;
12921;SDS011;6528;48.086;16.282;2023-10-19T04:52:58;6.80;;;6.30;;
12921;SDS011;6528;48.086;16.282;2023-10-19T04:55:26;7.53;;;6.83;;
12921;SDS011;6528;48.086;16.282;2023-10-19T04:57:54;7.17;;;6.67;;
12921;SDS011;6528;48.086;16.282;2023-10-19T05:00:21;7.30;;;6.80;;
12921;SDS011;6528;48.086;16.282;2023-10-19T05:02:51;7.53;;;6.93;;
12921;SDS011;6528;48.086;16.282;2023-10-19T05:05:19;6.47;;;5.97;;
12921;SDS011;6528;48.086;16.282;2023-10-19T05:07:46;6.80;;;6.30;;
12921;SDS011;6528;48.086;16.282;2023-10-19T05:10:14;7.07;;;6.53;;
12921;SDS011;6528;48.086;16.282;2023-10-19T05:12:41;7.00;;;6.40;;
12921;SDS011;6528;48.086;16.282;2023-10-19T05:15:08;7.00;;;6.40;;
12921;SDS011;6528;48.086;16.282;2023-10-19T05:17:36;6.33;;;5.83;;
12921;SDS011;6528;48.086;16.282;2023-10-19T05:20:05;7.30;;;6.70;;
12921;SDS011;6528;48.086;16.282;2023-10-19T05:22:34;6.40;;;5.90;;
12921;SDS011;6528;48.086;16.282;2023-10-19T05:25:01;6.47;;;5.93;;
12921;SDS011;6528;48.086;16.282;2023-10-19T05:27:28;8.97;;;6.30;;
12921;SDS011;6528;48.086;16.282;2023-10-19T05:29:56;6.73;;;6.30;;
12921;SDS011;6528;48.086;16.282;2023-10-19T05:32:23;6.70;;;6.30;;
12921;SDS011;6528;48.086;16.282;2023-10-19T05:34:51;7.03;;;6.43;;
12921;SDS011;6528;48.086;16.282;2023-10-19T05:37:19;6.77;;;6.07;;
12921;SDS011;6528;48.086;16.282;2023-10-19T05:39:46;7.10;;;6.43;;
12921;SDS011;6528;48.086;16.282;2023-10-19T05:42:14;7.70;;;6.90;;
12921;SDS011;6528;48.086;16.282;2023-10-19T05:44:41;7.60;;;7.00;;
12921;SDS011;6528;48.086;16.282;2023-10-19T05:47:08;7.40;;;6.70;;
12921;SDS011;6528;48.086;16.282;2023-10-19T05:49:36;8.47;;;7.77;;
12921;SDS011;6528;48.086;16.282;2023-10-19T05:52:04;7.57;;;6.93;;
12921;SDS011;6528;48.086;16.282;2023-10-19T05:54:31;7.57;;;6.87;;
12921;SDS011;6528;48.086;16.282;2023-10-19T05:56:59;7.70;;;6.90;;
12921;SDS011;6528;48.086;16.282;2023-10-19T05:59:26;7.03;;;6.53;;
12921;SDS011;6528;48.086;16.282;2023-10-19T06:01:55;7.03;;;6.43;;
12921;SDS011;6528;48.086;16.282;2023-10-19T06:04:23;8.03;;;7.33;;
12921;SDS011;6528;48.086;16.282;2023-10-19T06:06:50;7.37;;;6.77;;
12921;SDS011;6528;48.086;16.282;2023-10-19T06:09:18;7.03;;;6.47;;
12921;SDS011;6528;48.086;16.282;2023-10-19T06:11:46;7.47;;;6.80;;
12921;SDS011;6528;48.086;16.282;2023-10-19T06:14:13;8.00;;;7.40;;
12921;SDS011;6528;48.086;16.282;2023-10-19T06:16:40;6.97;;;6.40;;
12921;SDS011;6528;48.086;16.282;2023-10-19T06:19:08;7.43;;;6.90;;
12921;SDS011;6528;48.086;16.282;2023-10-19T06:21:35;7.00;;;6.30;;
12921;SDS011;6528;48.086;16.282;2023-10-19T06:24:03;8.00;;;7.30;;
12921;SDS011;6528;48.086;16.282;2023-10-19T06:26:31;8.00;;;7.40;;
12921;SDS011;6528;48.086;16.282;2023-10-19T06:28:58;8.67;;;7.77;;
12921;SDS011;6528;48.086;16.282;2023-10-19T06:31:26;7.60;;;7.00;;
12921;SDS011;6528;48.086;16.282;2023-10-19T06:33:56;7.73;;;7.13;;
12921;SDS011;6528;48.086;16.282;2023-10-19T06:36:24;8.00;;;7.40;;
12921;SDS011;6528;48.086;16.282;2023-10-19T06:38:52;8.83;;;7.30;;
12921;SDS011;6528;48.086;16.282;2023-10-19T06:41:21;8.00;;;7.40;;
12921;SDS011;6528;48.086;16.282;2023-10-19T06:43:49;9.10;;;7.70;;
12921;SDS011;6528;48.086;16.282;2023-10-19T06:46:16;7.70;;;7.00;;
12921;SDS011;6528;48.086;16.282;2023-10-19T06:48:44;8.70;;;7.90;;
12921;SDS011;6528;48.086;16.282;2023-10-19T06:51:12;8.50;;;7.60;;
12921;SDS011;6528;48.086;16.282;2023-10-19T06:53:39;7.93;;;7.23;;
12921;SDS011;6528;48.086;16.282;2023-10-19T06:56:06;8.27;;;7.63;;
12921;SDS011;6528;48.086;16.282;2023-10-19T06:58:34;7.77;;;7.00;;
12921;SDS011;6528;48.086;16.282;2023-10-19T07:01:06;8.70;;;7.97;;
12921;SDS011;6528;48.086;16.282;2023-10-19T07:03:35;8.83;;;7.93;;
12921;SDS011;6528;48.086;16.282;2023-10-19T07:06:03;8.23;;;7.50;;
12921;SDS011;6528;48.086;16.282;2023-10-19T07:08:41;7.77;;;7.07;;
12921;SDS011;6528;48.086;16.282;2023-10-19T07:11:09;7.50;;;6.80;;
12921;SDS011;6528;48.086;16.282;2023-10-19T07:13:36;8.33;;;7.57;;
12921;SDS011;6528;48.086;16.282;2023-10-19T07:16:04;7.67;;;7.07;;
12921;SDS011;6528;48.086;16.282;2023-10-19T07:18:32;7.47;;;6.87;;
12921;SDS011;6528;48.086;16.282;2023-10-19T07:20:59;7.80;;;7.20;;
12921;SDS011;6528;48.086;16.282;2023-10-19T07:23:30;8.13;;;7.43;;
12921;SDS011;6528;48.086;16.282;2023-10-19T07:25:58;8.67;;;7.90;;
12921;SDS011;6528;48.086;16.282;2023-10-19T07:28:28;8.67;;;7.60;;
12921;SDS011;6528;48.086;16.282;2023-10-19T07:30:57;8.10;;;7.30;;
12921;SDS011;6528;48.086;16.282;2023-10-19T07:33:28;8.60;;;7.80;;
12921;SDS011;6528;48.086;16.282;2023-10-19T07:35:55;7.73;;;7.07;;
12921;SDS011;6528;48.086;16.282;2023-10-19T07:38:27;8.53;;;7.80;;
12921;SDS011;6528;48.086;16.282;2023-10-19T07:40:55;7.90;;;7.10;;
12921;SDS011;6528;48.086;16.282;2023-10-19T07:43:23;8.60;;;7.80;;
12921;SDS011;6528;48.086;16.282;2023-10-19T07:45:52;8.00;;;7.40;;
12921;SDS011;6528;48.086;16.282;2023-10-19T07:48:19;7.77;;;7.17;;
12921;SDS011;6528;48.086;16.282;2023-10-19T07:50:47;7.33;;;6.77;;
12921;SDS011;6528;48.086;16.282;2023-10-19T07:53:14;7.83;;;7.20;;
12921;SDS011;6528;48.086;16.282;2023-10-19T07:55:43;8.53;;;7.80;;
12921;SDS011;6528;48.086;16.282;2023-10-19T07:58:11;7.43;;;6.83;;
12921;SDS011;6528;48.086;16.282;2023-10-19T08:00:38;8.07;;;7.20;;
12921;SDS011;6528;48.086;16.282;2023-10-19T08:03:08;8.37;;;7.67;;
12921;SDS011;6528;48.086;16.282;2023-10-19T08:05:37;7.13;;;6.63;;
12921;SDS011;6528;48.086;16.282;2023-10-19T08:08:05;7.80;;;7.20;;
12921;SDS011;6528;48.086;16.282;2023-10-19T08:10:32;8.50;;;7.70;;
12921;SDS011;6528;48.086;16.282;2023-10-19T08:13:03;7.10;;;6.50;;
12921;SDS011;6528;48.086;16.282;2023-10-19T08:15:31;7.30;;;6.73;;
12921;SDS011;6528;48.086;16.282;2023-10-19T08:17:58;7.13;;;6.53;;
12921;SDS011;6528;48.086;16.282;2023-10-19T08:20:26;7.33;;;6.70;;
12921;SDS011;6528;48.086;16.282;2023-10-19T08:23:03;6.90;;;6.40;;
12921;SDS011;6528;48.086;16.282;2023-10-19T08:25:32;7.57;;;7.03;;
12921;SDS011;6528;48.086;16.282;2023-10-19T08:28:20;7.83;;;7.20;;
12921;SDS011;6528;48.086;16.282;2023-10-19T08:30:48;8.27;;;7.57;;
12921;SDS011;6528;48.086;16.282;2023-10-19T08:33:29;7.30;;;6.70;;
12921;SDS011;6528;48.086;16.282;2023-10-19T08:35:56;7.77;;;7.07;;
12921;SDS011;6528;48.086;16.282;2023-10-19T08:38:24;6.83;;;6.33;;
12921;SDS011;6528;48.086;16.282;2023-10-19T08:40:52;7.43;;;6.83;;
12921;SDS011;6528;48.086;16.282;2023-10-19T08:43:21;7.03;;;6.43;;
12921;SDS011;6528;48.086;16.282;2023-10-19T08:45:51;7.93;;;7.33;;
12921;SDS011;6528;48.086;16.282;2023-10-19T08:48:20;7.10;;;6.50;;
12921;SDS011;6528;48.086;16.282;2023-10-19T08:50:47;7.50;;;6.90;;
12921;SDS011;6528;48.086;16.282;2023-10-19T08:53:15;7.13;;;6.57;;
12921;SDS011;6528;48.086;16.282;2023-10-19T08:55:46;8.60;;;7.90;;
12921;SDS011;6528;48.086;16.282;2023-10-19T08:58:17;10.37;;;9.00;;
12921;SDS011;6528;48.086;16.282;2023-10-19T09:00:49;10.00;;;9.10;;
12921;SDS011;6528;48.086;16.282;2023-10-19T09:03:23;10.70;;;9.70;;
12921;SDS011;6528;48.086;16.282;2023-10-19T09:05:52;11.87;;;10.63;;
12921;SDS011;6528;48.086;16.282;2023-10-19T09:08:21;11.20;;;10.17;;
12921;SDS011;6528;48.086;16.282;2023-10-19T09:10:50;14.30;;;10.43;;
12921;SDS011;6528;48.086;16.282;2023-10-19T09:13:21;12.20;;;11.10;;
12921;SDS011;6528;48.086;16.282;2023-10-19T09:15:51;11.63;;;10.53;;
12921;SDS011;6528;48.086;16.282;2023-10-19T09:18:24;14.10;;;12.07;;
12921;SDS011;6528;48.086;16.282;2023-10-19T09:20:55;14.10;;;12.60;;
12921;SDS011;6528;48.086;16.282;2023-10-19T09:23:32;15.10;;;13.50;;
12921;SDS011;6528;48.086;16.282;2023-10-19T09:26:00;14.83;;;13.40;;
12921;SDS011;6528;48.086;16.282;2023-10-19T09:28:35;13.37;;;12.07;;
12921;SDS011;6528;48.086;16.282;2023-10-19T09:31:05;14.47;;;13.07;;
12921;SDS011;6528;48.086;16.282;2023-10-19T09:33:36;14.00;;;12.90;;
12921;SDS011;6528;48.086;16.282;2023-10-19T09:36:07;14.13;;;12.80;;
12921;SDS011;6528;48.086;16.282;2023-10-19T09:38:44;13.83;;;12.63;;
12921;SDS011;6528;48.086;16.282;2023-10-19T09:41:15;13.63;;;12.33;;
12921;SDS011;6528;48.086;16.282;2023-10-19T09:43:46;13.47;;;12.27;;
12921;SDS011;6528;48.086;16.282;2023-10-19T09:46:27;13.53;;;12.33;;
12921;SDS011;6528;48.086;16.282;2023-10-19T09:48:58;13.67;;;12.47;;
12921;SDS011;6528;48.086;16.282;2023-10-19T09:51:26;13.37;;;12.10;;
12921;SDS011;6528;48.086;16.282;2023-10-19T09:53:59;13.73;;;12.37;;
12921;SDS011;6528;48.086;16.282;2023-10-19T09:56:34;11.57;;;10.67;;
12921;SDS011;6528;48.086;16.282;2023-10-19T09:59:05;12.93;;;11.60;;
12921;SDS011;6528;48.086;16.282;2023-10-19T10:04:53;11.47;;;10.47;;
12921;SDS011;6528;48.086;16.282;2023-10-19T10:07:20;11.83;;;10.83;;
12921;SDS011;6528;48.086;16.282;2023-10-19T10:10:07;11.30;;;10.30;;
12921;SDS011;6528;48.086;16.282;2023-10-19T10:12:35;13.07;;;12.00;;
12921;SDS011;6528;48.086;16.282;2023-10-19T10:15:03;13.40;;;12.07;;
12921;SDS011;6528;48.086;16.282;2023-10-19T10:17:38;13.03;;;11.83;;
12921;SDS011;6528;48.086;16.282;2023-10-19T10:23:15;11.60;;;10.60;;
12921;SDS011;6528;48.086;16.282;2023-10-19T10:26:03;13.07;;;11.70;;
12921;SDS011;6528;48.086;16.282;2023-10-19T10:28:31;13.80;;;11.67;;
12921;SDS011;6528;48.086;16.282;2023-10-19T10:33:46;11.63;;;10.60;;
12921;SDS011;6528;48.086;16.282;2023-10-19T10:36:18;12.10;;;10.20;;
12921;SDS011;6528;48.086;16.282;2023-10-19T10:38:47;12.70;;;11.47;;
12921;SDS011;6528;48.086;16.282;2023-10-19T10:41:22;12.30;;;11.30;;
12921;SDS011;6528;48.086;16.282;2023-10-19T10:43:56;12.07;;;11.07;;
12921;SDS011;6528;48.086;16.282;2023-10-19T10:46:26;13.37;;;12.20;;
12921;SDS011;6528;48.086;16.282;2023-10-19T10:48:55;10.87;;;10.03;;
12921;SDS011;6528;48.086;16.282;2023-10-19T10:51:24;13.20;;;12.10;;
12921;SDS011;6528;48.086;16.282;2023-10-19T10:53:55;13.07;;;11.73;;
12921;SDS011;6528;48.086;16.282;2023-10-19T10:56:24;10.90;;;9.80;;
12921;SDS011;6528;48.086;16.282;2023-10-19T10:58:51;10.33;;;9.43;;
12921;SDS011;6528;48.086;16.282;2023-10-19T11:01:32;12.10;;;11.00;;
12921;SDS011;6528;48.086;16.282;2023-10-19T11:04:06;12.23;;;10.40;;
12921;SDS011;6528;48.086;16.282;2023-10-19T11:06:45;11.67;;;10.60;;
12921;SDS011;6528;48.086;16.282;2023-10-19T11:09:22;11.47;;;10.53;;
12921;SDS011;6528;48.086;16.282;2023-10-19T11:11:51;11.57;;;10.57;;
12921;SDS011;6528;48.086;16.282;2023-10-19T11:14:21;11.73;;;10.20;;
12921;SDS011;6528;48.086;16.282;2023-10-19T11:16:51;10.97;;;9.87;;
12921;SDS011;6528;48.086;16.282;2023-10-19T11:19:19;10.37;;;9.47;;
12921;SDS011;6528;48.086;16.282;2023-10-19T11:21:53;9.80;;;8.90;;
12921;SDS011;6528;48.086;16.282;2023-10-19T11:24:25;10.60;;;9.50;;
12921;SDS011;6528;48.086;16.282;2023-10-19T11:26:53;10.40;;;9.50;;
12921;SDS011;6528;48.086;16.282;2023-10-19T11:29:22;10.93;;;10.03;;
12921;SDS011;6528;48.086;16.282;2023-10-19T11:31:57;12.70;;;10.10;;
12921;SDS011;6528;48.086;16.282;2023-10-19T11:34:28;11.20;;;10.10;;
12921;SDS011;6528;48.086;16.282;2023-10-19T11:36:57;10.27;;;9.47;;
12921;SDS011;6528;48.086;16.282;2023-10-19T11:39:26;10.30;;;9.50;;
12921;SDS011;6528;48.086;16.282;2023-10-19T11:41:55;10.53;;;9.60;;
12921;SDS011;6528;48.086;16.282;2023-10-19T11:44:22;9.20;;;8.50;;
12921;SDS011;6528;48.086;16.282;2023-10-19T11:46:50;9.90;;;8.53;;
12921;SDS011;6528;48.086;16.282;2023-10-19T11:49:17;10.30;;;9.43;;
12921;SDS011;6528;48.086;16.282;2023-10-19T11:51:48;9.03;;;8.30;;
12921;SDS011;6528;48.086;16.282;2023-10-19T11:54:16;9.93;;;9.07;;
12921;SDS011;6528;48.086;16.282;2023-10-19T11:56:44;9.53;;;8.70;;
12921;SDS011;6528;48.086;16.282;2023-10-19T11:59:12;9.30;;;8.50;;
12921;SDS011;6528;48.086;16.282;2023-10-19T12:01:39;9.33;;;8.63;;
12921;SDS011;6528;48.086;16.282;2023-10-19T12:04:06;8.00;;;7.33;;
12921;SDS011;6528;48.086;16.282;2023-10-19T12:06:34;8.77;;;7.83;;
12921;SDS011;6528;48.086;16.282;2023-10-19T12:09:01;9.30;;;8.53;;
12921;SDS011;6528;48.086;16.282;2023-10-19T12:11:41;9.03;;;8.33;;
12921;SDS011;6528;48.086;16.282;2023-10-19T12:14:12;9.50;;;8.80;;
12921;SDS011;6528;48.086;16.282;2023-10-19T12:16:41;9.20;;;8.40;;
12921;SDS011;6528;48.086;16.282;2023-10-19T12:19:09;9.50;;;8.63;;
12921;SDS011;6528;48.086;16.282;2023-10-19T12:21:36;9.43;;;8.63;;
12921;SDS011;6528;48.086;16.282;2023-10-19T12:24:07;10.40;;;8.83;;
12921;SDS011;6528;48.086;16.282;2023-10-19T12:26:35;10.17;;;8.93;;
12921;SDS011;6528;48.086;16.282;2023-10-19T12:29:02;9.00;;;8.30;;
12921;SDS011;6528;48.086;16.282;2023-10-19T12:31:33;9.20;;;8.40;;
12921;SDS011;6528;48.086;16.282;2023-10-19T12:34:01;9.63;;;8.83;;
12921;SDS011;6528;48.086;16.282;2023-10-19T12:36:28;9.37;;;8.20;;
12921;SDS011;6528;48.086;16.282;2023-10-19T12:38:58;8.23;;;7.63;;
12921;SDS011;6528;48.086;16.282;2023-10-19T12:41:27;8.90;;;8.20;;
12921;SDS011;6528;48.086;16.282;2023-10-19T12:43:55;9.80;;;8.90;;
12921;SDS011;6528;48.086;16.282;2023-10-19T12:46:29;9.00;;;8.30;;
12921;SDS011;6528;48.086;16.282;2023-10-19T12:48:56;8.70;;;7.97;;
12921;SDS011;6528;48.086;16.282;2023-10-19T12:51:25;9.63;;;8.80;;
12921;SDS011;6528;48.086;16.282;2023-10-19T12:53:52;8.60;;;8.00;;
12921;SDS011;6528;48.086;16.282;2023-10-19T12:56:21;8.67;;;7.97;;
12921;SDS011;6528;48.086;16.282;2023-10-19T12:58:55;8.87;;;8.17;;
12921;SDS011;6528;48.086;16.282;2023-10-19T13:01:23;8.67;;;8.03;;
12921;SDS011;6528;48.086;16.282;2023-10-19T13:03:50;9.30;;;8.40;;
12921;SDS011;6528;48.086;16.282;2023-10-19T13:06:18;8.30;;;7.70;;
12921;SDS011;6528;48.086;16.282;2023-10-19T13:08:46;8.60;;;7.90;;
12921;SDS011;6528;48.086;16.282;2023-10-19T13:11:13;8.33;;;7.63;;
12921;SDS011;6528;48.086;16.282;2023-10-19T13:13:44;8.87;;;8.17;;
12921;SDS011;6528;48.086;16.282;2023-10-19T13:16:12;8.73;;;8.10;;
12921;SDS011;6528;48.086;16.282;2023-10-19T13:18:40;9.53;;;8.73;;
12921;SDS011;6528;48.086;16.282;2023-10-19T13:21:08;8.20;;;7.57;;
12921;SDS011;6528;48.086;16.282;2023-10-19T13:23:43;8.83;;;8.13;;
12921;SDS011;6528;48.086;16.282;2023-10-19T13:26:12;8.30;;;7.70;;
12921;SDS011;6528;48.086;16.282;2023-10-19T13:28:42;8.40;;;7.70;;
12921;SDS011;6528;48.086;16.282;2023-10-19T13:31:10;9.70;;;8.80;;
12921;SDS011;6528;48.086;16.282;2023-10-19T13:33:40;9.70;;;8.90;;
12921;SDS011;6528;48.086;16.282;2023-10-19T13:36:12;8.60;;;7.90;;
12921;SDS011;6528;48.086;16.282;2023-10-19T13:38:40;7.97;;;7.37;;
12921;SDS011;6528;48.086;16.282;2023-10-19T13:41:08;8.13;;;7.53;;
12921;SDS011;6528;48.086;16.282;2023-10-19T13:43:41;8.90;;;8.00;;
12921;SDS011;6528;48.086;16.282;2023-10-19T13:46:12;8.00;;;7.40;;
12921;SDS011;6528;48.086;16.282;2023-10-19T13:48:39;8.13;;;7.43;;
12921;SDS011;6528;48.086;16.282;2023-10-19T13:51:07;9.00;;;8.30;;
12921;SDS011;6528;48.086;16.282;2023-10-19T13:53:42;8.90;;;8.20;;
12921;SDS011;6528;48.086;16.282;2023-10-19T13:56:12;8.13;;;7.47;;
12921;SDS011;6528;48.086;16.282;2023-10-19T13:58:41;7.87;;;7.13;;
12921;SDS011;6528;48.086;16.282;2023-10-19T14:01:09;7.83;;;7.23;;
12921;SDS011;6528;48.086;16.282;2023-10-19T14:03:41;9.07;;;8.17;;
12921;SDS011;6528;48.086;16.282;2023-10-19T14:06:12;8.90;;;8.03;;
12921;SDS011;6528;48.086;16.282;2023-10-19T14:08:43;8.87;;;8.17;;
12921;SDS011;6528;48.086;16.282;2023-10-19T14:11:10;9.07;;;8.37;;
12921;SDS011;6528;48.086;16.282;2023-10-19T14:13:38;8.17;;;7.47;;
12921;SDS011;6528;48.086;16.282;2023-10-19T14:16:09;8.70;;;7.27;;
12921;SDS011;6528;48.086;16.282;2023-10-19T14:18:37;9.07;;;8.37;;
12921;SDS011;6528;48.086;16.282;2023-10-19T14:21:14;7.70;;;7.10;;
12921;SDS011;6528;48.086;16.282;2023-10-19T14:23:43;10.00;;;7.20;;
12921;SDS011;6528;48.086;16.282;2023-10-19T14:26:12;7.77;;;7.17;;
12921;SDS011;6528;48.086;16.282;2023-10-19T14:28:40;8.20;;;7.50;;
12921;SDS011;6528;48.086;16.282;2023-10-19T14:31:08;7.57;;;6.97;;
12921;SDS011;6528;48.086;16.282;2023-10-19T14:33:37;7.73;;;7.13;;
12921;SDS011;6528;48.086;16.282;2023-10-19T14:36:08;8.40;;;7.70;;
12921;SDS011;6528;48.086;16.282;2023-10-19T14:38:36;7.73;;;7.13;;
12921;SDS011;6528;48.086;16.282;2023-10-19T14:41:06;8.10;;;7.50;;
12921;SDS011;6528;48.086;16.282;2023-10-19T14:43:36;8.40;;;7.80;;
12921;SDS011;6528;48.086;16.282;2023-10-19T14:46:07;7.77;;;7.17;;
12921;SDS011;6528;48.086;16.282;2023-10-19T14:48:34;8.40;;;7.80;;
12921;SDS011;6528;48.086;16.282;2023-10-19T14:51:03;8.47;;;7.77;;
12921;SDS011;6528;48.086;16.282;2023-10-19T14:53:32;8.23;;;7.50;;
12921;SDS011;6528;48.086;16.282;2023-10-19T14:56:00;8.30;;;7.67;;
12921;SDS011;6528;48.086;16.282;2023-10-19T14:58:28;8.63;;;7.93;;
12921;SDS011;6528;48.086;16.282;2023-10-19T15:00:58;7.67;;;7.07;;
12921;SDS011;6528;48.086;16.282;2023-10-19T15:03:26;7.57;;;7.03;;
12921;SDS011;6528;48.086;16.282;2023-10-19T15:05:55;7.63;;;7.03;;
12921;SDS011;6528;48.086;16.282;2023-10-19T15:08:26;8.50;;;7.80;;
12921;SDS011;6528;48.086;16.282;2023-10-19T15:10:55;7.83;;;7.27;;